Time;durP1;ratioP1;P1;durP2;ratioP2;P2;SDS_P1;SDS_P2;PMS_P1;PMS_P2;Temp;Humidity;BMP_temperature;BMP_pressure;BME280_temperature;BME280_humidity;BME280_pressure;Samples;Min_cycle;Max_cycle;Signal;HPM_P1;HPM_P2
2023/05/25 00:00:29;;;;;;;5.68;4.43;;;;;;;6.95;100.00;102462.09;1040367;28;20438;-85
2023/05/25 00:01:00;;;;;;;9.55;4.85;;;;;;;6.94;100.00;102465.75;1039934;28;20296;-85
2023/05/25 00:01:34;;;;;;;6.78;4.07;;;;;;;6.90;100.00;102458.25;1042143;28;20298;-85
2023/05/25 00:02:14;;;;;;;5.25;4.43;;;;;;;6.86;100.00;102472.78;1044122;28;20385;-84
2023/05/25 00:02:46;;;;;;;8.35;4.05;;;;;;;6.78;100.00;102465.56;1044401;28;20442;-85
2023/05/25 00:03:19;;;;;;;8.70;3.83;;;;;;;6.81;100.00;102470.56;1040231;28;20379;-85
2023/05/25 00:03:54;;;;;;;6.00;4.22;;;;;;;6.77;100.00;102470.03;1036868;28;20363;-84
2023/05/25 00:04:29;;;;;;;8.25;4.40;;;;;;;6.83;100.00;102474.72;1036176;28;20370;-85
2023/05/25 00:05:01;;;;;;;6.63;3.90;;;;;;;6.86;100.00;102473.63;1033852;28;20328;-85
2023/05/25 00:05:33;;;;;;;7.75;3.92;;;;;;;6.79;100.00;102467.25;1037581;28;20296;-84
2023/05/25 00:06:06;;;;;;;7.45;4.32;;;;;;;6.77;100.00;102464.75;1041840;28;20296;-85
2023/05/25 00:06:40;;;;;;;7.35;3.90;;;;;;;6.77;100.00;102461.25;1042604;28;20781;-83
2023/05/25 00:07:13;;;;;;;5.15;3.38;;;;;;;6.80;100.00;102459.13;1045509;28;20299;-84
2023/05/25 00:07:46;;;;;;;3.97;3.63;;;;;;;6.78;100.00;102462.94;1036095;28;20375;-85
2023/05/25 00:08:20;;;;;;;6.75;4.20;;;;;;;6.75;100.00;102465.88;1036596;28;20296;-84
2023/05/25 00:08:54;;;;;;;7.75;4.80;;;;;;;6.70;100.00;102463.69;1037428;28;20289;-83
2023/05/25 00:09:25;;;;;;;6.32;4.55;;;;;;;6.66;100.00;102466.78;1038884;28;20308;-81
2023/05/25 00:09:57;;;;;;;7.72;3.92;;;;;;;6.67;100.00;102476.41;1044064;28;20849;-81
2023/05/25 00:10:30;;;;;;;4.95;3.15;;;;;;;6.62;100.00;102470.72;1036058;28;20305;-81
2023/05/25 00:11:01;;;;;;;4.00;3.58;;;;;;;6.58;100.00;102467.56;1036606;28;20304;-85
2023/05/25 00:11:40;;;;;;;8.63;4.30;;;;;;;6.61;100.00;102464.59;1033952;28;20310;-81
2023/05/25 00:12:13;;;;;;;5.38;4.20;;;;;;;6.61;100.00;102463.78;1037607;28;20692;-81
2023/05/25 00:12:44;;;;;;;6.43;4.28;;;;;;;6.60;100.00;102470.06;1040200;28;20374;-81
2023/05/25 00:13:16;;;;;;;9.07;5.50;;;;;;;6.60;100.00;102472.69;1040588;28;20435;-81
2023/05/25 00:13:49;;;;;;;6.20;4.30;;;;;;;6.61;100.00;102475.19;1040921;28;20291;-81
2023/05/25 00:14:21;;;;;;;6.95;3.80;;;;;;;6.56;100.00;102466.00;1040252;28;20295;-81
2023/05/25 00:14:55;;;;;;;8.07;4.32;;;;;;;6.58;100.00;102464.06;1040465;28;20299;-81
2023/05/25 00:15:27;;;;;;;10.23;4.40;;;;;;;6.59;100.00;102468.38;1037305;28;20387;-81
2023/05/25 00:15:58;;;;;;;7.90;4.40;;;;;;;6.55;100.00;102464.34;1035919;28;20351;-81
2023/05/25 00:16:36;;;;;;;10.82;4.22;;;;;;;6.47;100.00;102463.28;1035394;28;20316;-81
2023/05/25 00:17:08;;;;;;;7.32;3.55;;;;;;;6.52;100.00;102468.13;1037230;28;20288;-81
2023/05/25 00:17:40;;;;;;;15.18;4.93;;;;;;;6.60;100.00;102462.09;1037776;28;20788;-81
2023/05/25 00:18:12;;;;;;;5.65;4.25;;;;;;;6.61;100.00;102467.25;1040289;28;20299;-81
2023/05/25 00:18:44;;;;;;;7.88;4.47;;;;;;;6.62;100.00;102465.44;1037330;28;20304;-81
2023/05/25 00:19:17;;;;;;;7.93;5.32;;;;;;;6.59;100.00;102455.16;1041158;28;20675;-81
2023/05/25 00:19:49;;;;;;;5.47;3.88;;;;;;;6.60;100.00;102462.94;1040323;28;20383;-81
2023/05/25 00:20:22;;;;;;;7.63;4.40;;;;;;;6.56;100.00;102458.91;1037280;28;20354;-82
2023/05/25 00:20:54;;;;;;;8.55;4.50;;;;;;;6.53;100.00;102461.03;1040636;28;20288;-84
2023/05/25 00:21:26;;;;;;;8.65;5.10;;;;;;;6.51;100.00;102459.34;1040234;28;20431;-84
2023/05/25 00:22:01;;;;;;;7.80;4.47;;;;;;;6.62;100.00;102462.78;1041001;28;20300;-84
2023/05/25 00:22:36;;;;;;;6.05;4.53;;;;;;;6.67;100.00;102458.69;1044470;28;20317;-84
2023/05/25 00:23:07;;;;;;;8.77;4.28;;;;;;;6.65;100.00;102454.53;1039809;28;20304;-84
2023/05/25 00:23:39;;;;;;;5.18;4.57;;;;;;;6.65;100.00;102455.38;1031924;28;20308;-84
2023/05/25 00:24:11;;;;;;;11.00;4.78;;;;;;;6.64;100.00;102466.94;1032122;28;20293;-85
2023/05/25 00:24:42;;;;;;;11.13;4.72;;;;;;;6.57;100.00;102463.22;1033116;28;20300;-84
2023/05/25 00:25:14;;;;;;;10.88;4.47;;;;;;;6.51;100.00;102467.28;1040948;28;20295;-84
2023/05/25 00:25:46;;;;;;;6.28;4.57;;;;;;;6.41;100.00;102469.19;1044228;28;20687;-85
2023/05/25 00:26:18;;;;;;;8.05;4.45;;;;;;;6.49;100.00;102471.91;1044499;28;20294;-85
2023/05/25 00:26:50;;;;;;;8.80;4.80;;;;;;;6.51;100.00;102467.28;1040758;28;20300;-83
2023/05/25 00:27:24;;;;;;;5.88;4.00;;;;;;;6.44;100.00;102468.06;1036214;28;20677;-84
2023/05/25 00:27:56;;;;;;;6.78;4.55;;;;;;;6.49;100.00;102466.63;1028013;28;20849;-85
2023/05/25 00:28:28;;;;;;;8.80;5.20;;;;;;;6.59;100.00;102471.03;1020829;29;20299;-84
2023/05/25 00:29:00;;;;;;;8.98;5.22;;;;;;;6.57;100.00;102472.97;1027859;28;20309;-85
2023/05/25 00:29:32;;;;;;;5.70;4.95;;;;;;;6.61;100.00;102469.91;1024435;28;20422;-85
2023/05/25 00:30:05;;;;;;;9.13;4.85;;;;;;;6.69;100.00;102475.28;1032199;28;20301;-85
2023/05/25 00:30:37;;;;;;;19.25;4.70;;;;;;;6.60;100.00;102473.53;1035906;28;20451;-84
2023/05/25 00:31:10;;;;;;;32.75;6.10;;;;;;;6.60;100.00;102478.00;1035815;28;20327;-84
2023/05/25 00:31:42;;;;;;;13.43;5.22;;;;;;;6.58;100.00;102474.66;1031642;28;20395;-84
2023/05/25 00:32:14;;;;;;;7.57;4.15;;;;;;;6.51;100.00;102474.41;1029082;28;20305;-84
2023/05/25 00:32:46;;;;;;;11.35;4.68;;;;;;;6.47;100.00;102473.88;1032709;28;20296;-84
2023/05/25 00:33:18;;;;;;;9.23;4.60;;;;;;;6.42;100.00;102476.16;1032516;28;20330;-84
2023/05/25 00:33:50;;;;;;;9.38;4.18;;;;;;;6.46;100.00;102474.84;1036664;28;20308;-84
2023/05/25 00:34:21;;;;;;;9.82;4.03;;;;;;;6.58;100.00;102472.03;1036001;28;20688;-84
2023/05/25 00:34:54;;;;;;;6.88;3.90;;;;;;;6.63;100.00;102478.53;1036441;28;20328;-84
2023/05/25 00:35:25;;;;;;;8.07;4.90;;;;;;;6.64;100.00;102474.06;1035957;28;20296;-84
2023/05/25 00:35:57;;;;;;;5.75;4.40;;;;;;;6.64;100.00;102474.06;1033130;28;20828;-84
2023/05/25 00:36:29;;;;;;;14.85;5.22;;;;;;;6.65;100.00;102473.06;1032001;28;20312;-85
2023/05/25 00:37:00;;;;;;;9.93;5.10;;;;;;;6.65;100.00;102481.03;1028498;28;20658;-84
2023/05/25 00:37:32;;;;;;;6.35;4.13;;;;;;;6.62;100.00;102473.38;1032169;28;20323;-84
2023/05/25 00:38:05;;;;;;;5.55;3.92;;;;;;;6.69;100.00;102466.50;1036539;28;20293;-83
2023/05/25 00:38:36;;;;;;;7.43;4.60;;;;;;;6.74;100.00;102477.47;1032525;28;20340;-84
2023/05/25 00:39:08;;;;;;;5.78;4.13;;;;;;;6.70;100.00;102473.44;1032068;28;20304;-84
2023/05/25 00:39:42;;;;;;;6.03;4.10;;;;;;;6.68;100.00;102475.41;1027859;28;20302;-84
2023/05/25 00:40:15;;;;;;;9.27;4.20;;;;;;;6.69;100.00;102482.38;1032216;28;20372;-84
2023/05/25 00:40:47;;;;;;;6.57;4.10;;;;;;;6.73;100.00;102481.94;1031929;28;20392;-84
2023/05/25 00:41:19;;;;;;;8.25;4.50;;;;;;;6.65;100.00;102478.38;1028926;28;20294;-83
2023/05/25 00:41:51;;;;;;;10.57;4.47;;;;;;;6.68;100.00;102481.53;1033912;28;20310;-84
2023/05/25 00:42:23;;;;;;;9.00;4.35;;;;;;;6.73;100.00;102473.16;1031862;28;20376;-84
2023/05/25 00:42:56;;;;;;;9.98;4.28;;;;;;;6.75;100.00;102476.47;1028121;28;20298;-84
2023/05/25 00:43:28;;;;;;;10.57;5.05;;;;;;;6.76;100.00;102478.13;1025427;28;20693;-84
2023/05/25 00:43:59;;;;;;;4.00;3.70;;;;;;;6.83;100.00;102477.38;1032392;28;20396;-84
2023/05/25 00:44:31;;;;;;;8.05;4.00;;;;;;;6.74;100.00;102475.66;1040950;28;20296;-84
2023/05/25 00:45:03;;;;;;;7.85;4.65;;;;;;;6.78;100.00;102476.16;1040194;28;20371;-84
2023/05/25 00:45:36;;;;;;;7.00;3.83;;;;;;;6.73;100.00;102479.28;1040905;28;20446;-82
2023/05/25 00:46:08;;;;;;;9.48;4.80;;;;;;;6.70;100.00;102473.44;1039391;28;20300;-84
2023/05/25 00:46:46;;;;;;;4.88;3.63;;;;;;;6.58;100.00;102480.78;1032840;28;20376;-84
2023/05/25 00:47:18;;;;;;;5.88;4.47;;;;;;;6.48;100.00;102480.00;1032165;28;20309;-84
2023/05/25 00:47:52;;;;;;;7.60;3.97;;;;;;;6.47;100.00;102473.88;1034140;28;20304;-81
2023/05/25 00:48:27;;;;;;;6.90;3.90;;;;;;;6.40;100.00;102478.09;1037869;28;20296;-81
2023/05/25 00:48:58;;;;;;;10.93;5.00;;;;;;;6.45;100.00;102481.13;1040979;28;20302;-81
2023/05/25 00:49:33;;;;;;;5.93;4.40;;;;;;;6.42;100.00;102476.16;1035811;28;20308;-81
2023/05/25 00:50:08;;;;;;;4.63;3.60;;;;;;;6.39;100.00;102471.16;1028112;28;20306;-81
2023/05/25 00:50:43;;;;;;;6.00;3.67;;;;;;;6.35;100.00;102480.38;1033693;28;20293;-81
2023/05/25 00:51:17;;;;;;;7.47;3.97;;;;;;;6.33;100.00;102477.03;1035979;28;20305;-81
2023/05/25 00:51:51;;;;;;;6.13;4.38;;;;;;;6.30;100.00;102477.34;1035283;28;20302;-81
2023/05/25 00:52:22;;;;;;;4.45;3.80;;;;;;;6.36;100.00;102476.75;1035174;28;20892;-82
2023/05/25 00:52:54;;;;;;;6.05;3.92;;;;;;;6.37;100.00;102483.69;1028398;28;20815;-81
2023/05/25 00:53:26;;;;;;;5.15;4.07;;;;;;;6.35;100.00;102469.78;1024674;28;20856;-81
2023/05/25 00:53:58;;;;;;;5.85;3.92;;;;;;;6.31;100.00;102467.59;1032947;28;20297;-81
2023/05/25 00:54:32;;;;;;;6.70;4.15;;;;;;;6.24;100.00;102472.63;1036777;28;20296;-81
2023/05/25 00:55:06;;;;;;;8.48;4.00;;;;;;;6.19;100.00;102472.22;1036622;28;20296;-81
2023/05/25 00:55:44;;;;;;;6.53;4.72;;;;;;;6.20;100.00;102472.09;1034886;28;20372;-81
2023/05/25 00:56:23;;;;;;;6.32;4.18;;;;;;;6.16;100.00;102476.00;1038227;28;20296;-81
2023/05/25 00:57:03;;;;;;;12.85;5.03;;;;;;;6.16;100.00;102470.72;1039789;28;20847;-84
2023/05/25 00:57:36;;;;;;;5.80;3.45;;;;;;;6.18;100.00;102475.84;1040826;28;20300;-84
2023/05/25 00:58:08;;;;;;;5.45;3.65;;;;;;;6.22;100.00;102473.75;1036847;28;20065;-84
2023/05/25 00:58:41;;;;;;;5.28;3.25;;;;;;;6.29;100.00;102480.94;1039447;28;20321;-84
2023/05/25 00:59:18;;;;;;;7.15;4.50;;;;;;;6.35;100.00;102479.53;1039375;28;20837;-84
2023/05/25 00:59:52;;;;;;;10.70;4.13;;;;;;;6.34;100.00;102477.88;1030253;28;20310;-82
2023/05/25 01:00:27;;;;;;;6.47;3.67;;;;;;;6.36;100.00;102479.38;1028665;28;20305;-84
2023/05/25 01:01:00;;;;;;;4.78;3.92;;;;;;;6.36;100.00;102476.75;1023853;29;20374;-84
2023/05/25 01:01:39;;;;;;;6.78;4.38;;;;;;;6.37;100.00;102483.69;1027860;28;20392;-84
2023/05/25 01:02:16;;;;;;;3.70;3.40;;;;;;;6.33;100.00;102477.03;1036123;28;20301;-84
2023/05/25 01:02:51;;;;;;;4.88;3.33;;;;;;;6.41;100.00;102485.06;1034412;28;20307;-84
2023/05/25 01:03:27;;;;;;;6.63;3.40;;;;;;;6.38;100.00;102482.72;1031595;28;20297;-84
2023/05/25 01:04:00;;;;;;;4.53;3.75;;;;;;;6.42;100.00;102485.91;1035577;28;20311;-84
2023/05/25 01:04:38;;;;;;;6.13;4.03;;;;;;;6.43;100.00;102483.09;1040067;28;20307;-84
2023/05/25 01:05:11;;;;;;;5.97;4.35;;;;;;;6.48;100.00;102485.28;1031899;28;20357;-84
2023/05/25 01:05:44;;;;;;;9.43;4.13;;;;;;;6.48;100.00;102485.28;1027903;28;20306;-84
2023/05/25 01:06:21;;;;;;;8.45;4.35;;;;;;;6.53;100.00;102483.03;1033357;28;20300;-84
2023/05/25 01:06:54;;;;;;;7.57;4.38;;;;;;;6.54;100.00;102483.88;1036241;28;20378;-84
2023/05/25 01:07:28;;;;;;;6.55;4.32;;;;;;;6.59;100.00;102486.91;1031826;28;20309;-84
2023/05/25 01:08:02;;;;;;;5.85;4.63;;;;;;;6.57;100.00;102486.22;1029684;28;20863;-84
2023/05/25 01:08:34;;;;;;;9.40;4.55;;;;;;;6.60;100.00;102488.59;1028626;28;20408;-84
2023/05/25 01:09:07;;;;;;;8.55;4.30;;;;;;;6.59;100.00;102493.03;1033970;28;20301;-84
2023/05/25 01:09:41;;;;;;;7.07;5.07;;;;;;;6.63;100.00;102493.56;1039917;28;20292;-84
2023/05/25 01:10:13;;;;;;;10.75;4.95;;;;;;;6.63;100.00;102490.94;1033144;28;20827;-84
2023/05/25 01:10:47;;;;;;;9.00;4.72;;;;;;;6.69;100.00;102487.69;1036646;28;20315;-84
2023/05/25 01:11:25;;;;;;;8.73;4.35;;;;;;;6.56;100.00;102487.19;1028843;28;20309;-84
2023/05/25 01:11:59;;;;;;;4.28;3.88;;;;;;;6.47;100.00;102484.47;1033513;28;20289;-84
2023/05/25 01:12:35;;;;;;;8.60;5.15;;;;;;;6.54;100.00;102489.16;1027656;28;20302;-84
2023/05/25 01:13:08;;;;;;;5.85;4.22;;;;;;;6.46;100.00;102484.63;1038804;28;20307;-84
2023/05/25 01:13:41;;;;;;;5.88;4.18;;;;;;;6.40;100.00;102483.41;1044091;28;20303;-84
2023/05/25 01:14:17;;;;;;;6.65;4.65;;;;;;;6.41;100.00;102486.88;1045639;28;20299;-85
2023/05/25 01:14:51;;;;;;;8.73;3.22;;;;;;;6.35;100.00;102485.66;1048314;28;20298;-81
2023/05/25 01:15:23;;;;;;;6.97;4.53;;;;;;;6.35;100.00;102490.13;1036109;28;20375;-81
2023/05/25 01:15:55;;;;;;;8.68;5.22;;;;;;;6.28;100.00;102478.44;1037435;28;20301;-81
2023/05/25 01:16:28;;;;;;;9.25;4.35;;;;;;;6.26;100.00;102483.88;1032007;28;20312;-81
2023/05/25 01:17:02;;;;;;;5.00;4.50;;;;;;;6.31;100.00;102488.75;1032146;28;20388;-81
2023/05/25 01:17:36;;;;;;;5.78;4.22;;;;;;;6.29;100.00;102482.75;1036481;28;20292;-82
2023/05/25 01:18:13;;;;;;;5.70;4.63;;;;;;;6.30;100.00;102485.28;1033269;28;20920;-81
2023/05/25 01:18:46;;;;;;;6.25;4.95;;;;;;;6.25;100.00;102490.16;1033694;28;20388;-81
2023/05/25 01:19:18;;;;;;;7.80;4.40;;;;;;;6.31;100.00;102483.47;1035925;28;20299;-81
2023/05/25 01:19:51;;;;;;;5.35;3.47;;;;;;;6.28;100.00;102484.56;1036703;28;20296;-81
2023/05/25 01:21:12;;;;;;;8.07;4.32;;;;;;;6.31;100.00;102483.47;1043899;28;20296;-84
2023/05/25 01:21:48;;;;;;;6.45;4.35;;;;;;;6.30;100.00;102484.41;1043978;28;20303;-84
2023/05/25 01:22:50;;;;;;;7.15;4.32;;;;;;;6.42;100.00;102486.72;1035520;28;20619;-84
2023/05/25 01:23:27;;;;;;;4.40;3.50;;;;;;;6.37;100.00;102488.16;1027373;28;20302;-84
2023/05/25 01:24:08;;;;;;;6.22;4.57;;;;;;;6.44;100.00;102490.06;1029933;28;20164;-84
2023/05/25 01:24:45;;;;;;;4.28;3.88;;;;;;;6.46;100.00;102489.91;1031853;28;20308;-84
2023/05/25 01:25:21;;;;;;;5.25;3.97;;;;;;;6.48;100.00;102480.84;1030997;28;20039;-81
2023/05/25 01:25:56;;;;;;;8.35;4.00;;;;;;;6.57;100.00;102488.84;1028197;28;20298;-81
2023/05/25 01:26:31;;;;;;;8.85;4.07;;;;;;;6.48;100.00;102491.41;1026826;28;20306;-84
2023/05/25 01:27:13;;;;;;;5.40;4.20;;;;;;;6.50;100.00;102489.47;1033420;28;20306;-84
2023/05/25 01:27:55;;;;;;;6.40;3.92;;;;;;;6.47;100.00;102492.41;1038190;28;20307;-84
2023/05/25 01:28:31;;;;;;;7.47;5.32;;;;;;;6.48;100.00;102490.59;1043948;28;20315;-84
2023/05/25 01:29:03;;;;;;;6.95;3.92;;;;;;;6.53;100.00;102498.09;1040151;28;20303;-84
2023/05/25 01:29:36;;;;;;;8.82;4.60;;;;;;;6.53;100.00;102492.78;1038002;28;20311;-83
2023/05/25 01:30:10;;;;;;;6.47;4.65;;;;;;;6.52;100.00;102502.53;1035608;28;20334;-84
2023/05/25 01:30:47;;;;;;;6.65;3.63;;;;;;;6.57;100.00;102494.16;1035949;28;20292;-84
2023/05/25 01:31:22;;;;;;;5.78;4.47;;;;;;;6.59;100.00;102493.03;1033191;28;20302;-83
2023/05/25 01:31:54;;;;;;;7.15;3.85;;;;;;;6.60;100.00;102502.66;1029492;28;20849;-84
2023/05/25 01:32:27;;;;;;;10.43;5.35;;;;;;;6.50;100.00;102497.41;1029859;28;20310;-84
2023/05/25 01:33:00;;;;;;;8.90;4.82;;;;;;;6.45;100.00;102491.72;1028383;28;20294;-84
2023/05/25 01:33:32;;;;;;;6.47;5.38;;;;;;;6.45;100.00;102502.31;1028829;28;20352;-84
2023/05/25 01:34:07;;;;;;;7.47;4.72;;;;;;;6.47;100.00;102494.22;1026891;28;20310;-84
2023/05/25 01:34:40;;;;;;;6.05;4.05;;;;;;;6.44;100.00;102495.34;1028739;28;20360;-84
2023/05/25 01:35:12;;;;;;;7.15;4.38;;;;;;;6.39;100.00;102494.97;1031588;28;20348;-84
2023/05/25 01:35:45;;;;;;;10.07;4.50;;;;;;;6.33;100.00;102490.28;1035514;28;20668;-84
2023/05/25 01:36:18;;;;;;;7.32;4.70;;;;;;;6.26;100.00;102496.28;1040411;28;20707;-83
2023/05/25 01:36:50;;;;;;;8.38;4.00;;;;;;;6.21;100.00;102488.78;1032519;28;20305;-84
2023/05/25 01:37:23;;;;;;;5.85;4.05;;;;;;;6.09;100.00;102493.44;1028340;28;20681;-83
2023/05/25 01:37:57;;;;;;;5.78;4.40;;;;;;;6.11;100.00;102488.00;1030725;28;20294;-81
2023/05/25 01:38:30;;;;;;;8.00;4.18;;;;;;;6.09;100.00;102495.25;1033146;28;20368;-84
2023/05/25 01:39:04;;;;;;;5.10;4.65;;;;;;;6.07;100.00;102494.59;1033093;28;20289;-84
2023/05/25 01:39:36;;;;;;;6.63;4.72;;;;;;;6.02;100.00;102489.69;1033284;28;20408;-84
2023/05/25 01:40:12;;;;;;;7.65;4.90;;;;;;;5.97;100.00;102486.66;1037639;28;20316;-81
2023/05/25 01:40:43;;;;;;;6.28;4.10;;;;;;;5.88;100.00;102501.56;1034411;28;20859;-81
2023/05/25 01:41:15;;;;;;;5.47;4.18;;;;;;;5.92;100.00;102498.66;1037921;28;20804;-81
2023/05/25 01:41:48;;;;;;;7.82;5.03;;;;;;;5.85;100.00;102501.88;1032931;28;20317;-81
2023/05/25 01:42:20;;;;;;;5.00;4.35;;;;;;;5.81;100.00;102497.84;1031982;28;20440;-81
2023/05/25 01:42:51;;;;;;;5.63;4.85;;;;;;;5.85;100.00;102499.22;1024283;28;20318;-81
2023/05/25 01:43:24;;;;;;;5.10;4.32;;;;;;;5.86;100.00;102502.69;1029087;28;20345;-84
2023/05/25 01:43:56;;;;;;;5.38;4.30;;;;;;;5.92;100.00;102499.50;1032048;28;20309;-84
2023/05/25 01:44:28;;;;;;;5.22;4.70;;;;;;;5.90;100.00;102501.47;1033338;28;20293;-83
2023/05/25 01:45:00;;;;;;;10.88;5.82;;;;;;;5.96;100.00;102506.16;1033468;28;20804;-81
2023/05/25 01:45:32;;;;;;;4.70;4.30;;;;;;;5.94;100.00;102502.00;1028372;28;20681;-83
2023/05/25 01:46:22;;;;;;;6.28;4.90;;;;;;;5.97;100.00;102499.88;1032392;28;20297;-84
2023/05/25 01:47:02;;;;;;;8.50;4.80;;;;;;;6.01;100.00;102506.56;1038084;28;20288;-81
2023/05/25 01:48:02;;;;;;;10.10;6.13;;;;;;;6.02;100.00;102505.56;1044794;28;20040;-81
2023/05/25 01:48:40;;;;;;;9.18;5.05;;;;;;;5.98;100.00;102504.19;1038949;28;20304;-81
2023/05/25 01:49:36;;;;;;;6.53;4.97;;;;;;;6.12;100.00;102497.63;1031850;28;20408;-81
2023/05/25 01:50:18;;;;;;;9.32;4.93;;;;;;;6.20;100.00;102498.53;1031829;28;20305;-81
2023/05/25 01:51:21;;;;;;;11.02;6.03;;;;;;;6.29;100.00;102488.88;1035503;28;20305;-81
2023/05/25 01:52:06;;;;;;;8.80;5.07;;;;;;;6.30;100.00;102498.50;1033690;28;20316;-81
2023/05/25 01:52:42;;;;;;;9.20;5.20;;;;;;;6.39;100.00;102497.63;1033878;28;20384;-81
2023/05/25 01:53:28;;;;;;;10.25;5.65;;;;;;;6.27;100.00;102498.78;1031853;28;20780;-81
2023/05/25 01:54:06;;;;;;;10.40;5.80;;;;;;;6.24;100.00;102499.06;1039907;28;20319;-81
2023/05/25 01:54:40;;;;;;;9.82;5.38;;;;;;;6.25;100.00;102492.81;1035863;28;20388;-81
2023/05/25 01:55:14;;;;;;;8.48;5.03;;;;;;;6.21;100.00;102494.09;1031686;28;20367;-81
2023/05/25 01:56:01;;;;;;;8.65;5.63;;;;;;;6.18;100.00;102504.97;1033891;28;20323;-81
2023/05/25 01:56:34;;;;;;;8.70;5.60;;;;;;;6.26;100.00;102497.13;1031897;28;20340;-84
2023/05/25 01:57:06;;;;;;;5.70;4.93;;;;;;;6.32;100.00;102493.91;1028113;28;20309;-84
2023/05/25 01:57:42;;;;;;;12.55;6.65;;;;;;;6.29;100.00;102491.53;1033368;28;20304;-84
2023/05/25 01:58:15;;;;;;;9.70;7.88;;;;;;;6.26;100.00;102498.94;1035598;28;20443;-84
2023/05/25 01:58:50;;;;;;;10.27;5.30;;;;;;;6.28;100.00;102489.03;1036633;28;20328;-83
2023/05/25 01:59:25;;;;;;;7.97;4.82;;;;;;;6.20;100.00;102493.25;1036240;28;20300;-81
2023/05/25 01:59:59;;;;;;;6.97;4.53;;;;;;;6.12;100.00;102500.25;1039833;28;20348;-81
2023/05/25 02:00:31;;;;;;;7.55;4.95;;;;;;;6.13;100.00;102497.47;1035816;28;20300;-81
2023/05/25 02:01:04;;;;;;;7.53;4.38;;;;;;;6.15;100.00;102494.69;1027470;28;20802;-81
2023/05/25 02:01:36;;;;;;;7.55;4.50;;;;;;;6.11;100.00;102493.31;1027688;28;20314;-81
2023/05/25 02:02:09;;;;;;;11.27;4.47;;;;;;;6.10;100.00;102492.47;1027384;28;20305;-81
2023/05/25 02:02:41;;;;;;;10.57;4.18;;;;;;;6.05;100.00;102502.66;1024483;28;20318;-81
2023/05/25 02:03:13;;;;;;;5.97;4.03;;;;;;;6.07;100.00;102497.22;1028341;28;20994;-81
2023/05/25 02:03:47;;;;;;;4.40;3.17;;;;;;;6.13;100.00;102501.94;1029301;28;20717;-81
2023/05/25 02:04:20;;;;;;;4.55;3.67;;;;;;;6.17;100.00;102493.53;1032715;28;20300;-81
2023/05/25 02:04:53;;;;;;;5.57;3.70;;;;;;;6.25;100.00;102494.63;1035716;28;20642;-81
2023/05/25 02:05:27;;;;;;;7.05;4.00;;;;;;;6.26;100.00;102491.00;1036280;28;20304;-84
2023/05/25 02:05:59;;;;;;;3.67;3.30;;;;;;;6.23;100.00;102499.22;1036994;28;20296;-84
2023/05/25 02:06:31;;;;;;;6.35;4.03;;;;;;;6.12;100.00;102503.75;1035649;28;20796;-84
2023/05/25 02:07:09;;;;;;;5.07;3.70;;;;;;;6.11;100.00;102507.38;1035741;28;20305;-84
2023/05/25 02:07:41;;;;;;;6.80;3.25;;;;;;;6.14;100.00;102503.59;1031720;28;20302;-84
2023/05/25 02:08:13;;;;;;;3.70;3.38;;;;;;;6.13;100.00;102508.06;1030410;28;20306;-84
2023/05/25 02:08:45;;;;;;;7.50;4.53;;;;;;;6.09;100.00;102501.38;1036937;28;20664;-84
2023/05/25 02:09:16;;;;;;;6.22;4.00;;;;;;;6.12;100.00;102505.56;1040206;28;20304;-84
2023/05/25 02:09:48;;;;;;;5.15;4.60;;;;;;;6.16;100.00;102501.63;1040359;28;20292;-84
2023/05/25 02:10:20;;;;;;;5.78;3.97;;;;;;;6.19;100.00;102499.53;1044991;28;20295;-84
2023/05/25 02:10:53;;;;;;;9.15;4.47;;;;;;;6.28;100.00;102502.25;1039177;28;20348;-81
2023/05/25 02:11:24;;;;;;;8.25;4.30;;;;;;;6.32;100.00;102501.84;1033110;28;20286;-81
2023/05/25 02:11:56;;;;;;;6.30;4.90;;;;;;;6.36;100.00;102500.56;1035895;28;20347;-81
2023/05/25 02:12:28;;;;;;;9.88;4.28;;;;;;;6.32;100.00;102507.13;1037185;28;20351;-81
2023/05/25 02:13:02;;;;;;;9.70;4.35;;;;;;;6.25;100.00;102505.19;1036918;28;20823;-84
2023/05/25 02:13:34;;;;;;;5.78;5.13;;;;;;;6.15;100.00;102507.91;1039953;28;20355;-84
2023/05/25 02:14:05;;;;;;;6.15;4.25;;;;;;;6.19;100.00;102507.47;1039434;28;20309;-84
2023/05/25 02:14:37;;;;;;;9.13;4.78;;;;;;;6.23;100.00;102507.16;1037129;28;20304;-84
2023/05/25 02:15:10;;;;;;;6.75;5.30;;;;;;;6.31;100.00;102505.47;1039881;28;20308;-84
2023/05/25 02:15:42;;;;;;;10.82;5.70;;;;;;;6.38;100.00;102506.53;1035435;28;20439;-83
2023/05/25 02:16:14;;;;;;;7.53;4.93;;;;;;;6.43;100.00;102504.28;1032489;28;20357;-84
2023/05/25 02:16:48;;;;;;;7.68;5.30;;;;;;;6.47;100.00;102505.63;1031596;28;20693;-84
2023/05/25 02:17:20;;;;;;;5.88;4.60;;;;;;;6.49;100.00;102502.84;1028292;28;20426;-84
2023/05/25 02:17:56;;;;;;;7.28;4.63;;;;;;;6.50;100.00;102499.22;1028594;28;20302;-84
2023/05/25 02:18:28;;;;;;;11.80;4.57;;;;;;;6.54;100.00;102505.03;1034189;28;20373;-84
2023/05/25 02:19:00;;;;;;;11.50;5.80;;;;;;;6.56;100.00;102508.38;1028655;28;20464;-84
2023/05/25 02:19:31;;;;;;;4.85;4.30;;;;;;;6.60;100.00;102505.31;1028613;28;20326;-84
2023/05/25 02:20:07;;;;;;;6.20;4.53;;;;;;;6.63;100.00;102501.53;1031524;28;20368;-84
2023/05/25 02:20:38;;;;;;;6.10;4.68;;;;;;;6.63;100.00;102504.16;1027555;28;20790;-84
2023/05/25 02:21:11;;;;;;;5.70;4.80;;;;;;;6.64;100.00;102500.53;1031456;28;20384;-84
2023/05/25 02:21:42;;;;;;;6.60;5.15;;;;;;;6.60;100.00;102500.00;1032514;28;20305;-84
2023/05/25 02:22:15;;;;;;;9.73;4.60;;;;;;;6.67;100.00;102505.53;1031690;28;20305;-84
2023/05/25 02:22:47;;;;;;;10.35;4.85;;;;;;;6.66;100.00;102509.16;1032231;28;20395;-84
2023/05/25 02:23:18;;;;;;;8.32;5.03;;;;;;;6.63;100.00;102509.47;1028332;28;20308;-84
2023/05/25 02:23:52;;;;;;;6.70;4.65;;;;;;;6.59;100.00;102505.44;1032306;28;20293;-84
2023/05/25 02:24:24;;;;;;;11.48;5.07;;;;;;;6.62;100.00;102507.78;1032451;28;20323;-81
2023/05/25 02:24:57;;;;;;;7.65;4.85;;;;;;;6.65;100.00;102513.63;1038389;28;20677;-84
2023/05/25 02:25:29;;;;;;;10.07;6.10;;;;;;;6.67;100.00;102502.88;1043797;28;20299;-84
2023/05/25 02:26:01;;;;;;;7.88;5.60;;;;;;;6.66;100.00;102509.16;1039835;28;20818;-84
2023/05/25 02:26:33;;;;;;;8.88;5.80;;;;;;;6.67;100.00;102505.53;1031584;28;20796;-84
2023/05/25 02:27:05;;;;;;;7.40;5.55;;;;;;;6.64;100.00;102497.88;1035599;28;20451;-84
2023/05/25 02:27:37;;;;;;;6.25;5.65;;;;;;;6.63;100.00;102504.16;1032409;28;20364;-84
2023/05/25 02:28:09;;;;;;;9.90;6.45;;;;;;;6.67;100.00;102500.22;1036278;28;20307;-84
2023/05/25 02:28:41;;;;;;;6.05;5.45;;;;;;;6.63;100.00;102504.16;1034394;28;20399;-84
2023/05/25 02:29:13;;;;;;;8.82;6.55;;;;;;;6.59;100.00;102497.50;1027475;28;20294;-84
2023/05/25 02:29:45;;;;;;;9.65;5.05;;;;;;;6.57;100.00;102499.44;1025436;28;20687;-83
2023/05/25 02:30:17;;;;;;;7.72;4.90;;;;;;;6.56;100.00;102495.13;1032042;28;20315;-84
2023/05/25 02:30:49;;;;;;;7.78;5.70;;;;;;;6.58;100.00;102501.13;1028609;28;20808;-84
2023/05/25 02:31:22;;;;;;;12.40;6.50;;;;;;;6.62;100.00;102497.22;1035614;28;20787;-84
2023/05/25 02:31:56;;;;;;;8.57;5.03;;;;;;;6.62;100.00;102502.50;1031681;28;20297;-84
2023/05/25 02:32:28;;;;;;;7.55;6.68;;;;;;;6.60;100.00;102499.19;1031378;28;20800;-83
2023/05/25 02:33:01;;;;;;;7.35;6.18;;;;;;;6.48;100.00;102502.00;1030815;28;20897;-84
2023/05/25 02:33:33;;;;;;;10.38;5.80;;;;;;;6.46;100.00;102496.03;1032633;28;20308;-84
2023/05/25 02:34:04;;;;;;;15.32;6.38;;;;;;;6.36;100.00;102495.28;1035495;28;20308;-83
2023/05/25 02:34:36;;;;;;;12.48;7.15;;;;;;;6.38;100.00;102498.59;1035639;28;20343;-84
2023/05/25 02:35:08;;;;;;;6.25;5.65;;;;;;;6.36;100.00;102497.09;1035269;28;20862;-84
2023/05/25 02:35:40;;;;;;;6.90;5.90;;;;;;;6.23;100.00;102496.56;1035615;28;20308;-84
2023/05/25 02:36:14;;;;;;;10.00;5.28;;;;;;;6.22;100.00;102503.69;1035703;28;20308;-84
2023/05/25 02:36:45;;;;;;;5.80;4.85;;;;;;;6.11;100.00;102502.06;1028194;28;20306;-84
2023/05/25 02:37:17;;;;;;;6.07;5.15;;;;;;;6.10;100.00;102500.41;1027316;28;20313;-84
2023/05/25 02:37:49;;;;;;;7.68;5.50;;;;;;;6.18;100.00;102503.16;1031641;28;20300;-84
2023/05/25 02:38:21;;;;;;;9.65;5.60;;;;;;;6.25;100.00;102498.09;1031420;28;20333;-84